Time;durP1;ratioP1;P1;durP2;ratioP2;P2;SDS_P1;SDS_P2;PMS_P1;PMS_P2;Temp;Humidity;BMP_temperature;BMP_pressure;BME280_temperature;BME280_humidity;BME280_pressure;Samples;Min_cycle;Max_cycle;Signal;HPM_P1;HPM_P2
2024/04/08 00:00:31;;;;;;;249.10;77.70;;;;;;;;;;5525325;25;20506;-43
2024/04/08 00:02:57;;;;;;;245.93;72.77;;;;;;;;;;5524826;26;20753;-43
2024/04/08 00:05:23;;;;;;;247.57;73.93;;;;;;;;;;5524670;25;21105;-43
2024/04/08 00:07:51;;;;;;;246.70;76.90;;;;;;;;;;5524874;25;20442;-43
2024/04/08 00:10:17;;;;;;;243.83;70.43;;;;;;;;;;5525054;26;20501;-43
2024/04/08 00:12:44;;;;;;;247.23;71.97;;;;;;;;;;5525248;26;20450;-43
2024/04/08 00:15:11;;;;;;;249.47;76.40;;;;;;;;;;5524457;25;20438;-43
2024/04/08 00:17:37;;;;;;;244.37;71.17;;;;;;;;;;5524820;26;20566;-43
2024/04/08 00:20:04;;;;;;;242.85;71.35;;;;;;;;;;5524796;26;20507;-43
2024/04/08 00:22:30;;;;;;;242.50;71.43;;;;;;;;;;5524822;26;20618;-43
2024/04/08 00:24:56;;;;;;;246.53;73.47;;;;;;;;;;5524374;25;20453;-43
2024/04/08 00:27:22;;;;;;;243.97;72.00;;;;;;;;;;5524515;26;20555;-43
2024/04/08 00:29:48;;;;;;;247.57;76.43;;;;;;;;;;5510545;26;20444;-43
2024/04/08 00:32:14;;;;;;;242.87;69.77;;;;;;;;;;5510252;25;21106;-43
2024/04/08 00:34:40;;;;;;;242.60;69.77;;;;;;;;;;5524960;25;20895;-43
2024/04/08 00:37:07;;;;;;;242.77;69.27;;;;;;;;;;5524179;26;20798;-43
2024/04/08 00:39:33;;;;;;;243.07;69.50;;;;;;;;;;5524610;25;20509;-43
2024/04/08 00:41:59;;;;;;;246.07;73.77;;;;;;;;;;5524291;25;20452;-43
2024/04/08 00:44:25;;;;;;;246.67;72.90;;;;;;;;;;5524670;25;20544;-43
2024/04/08 00:46:52;;;;;;;244.23;72.67;;;;;;;;;;5524011;25;20861;-43
2024/04/08 00:49:18;;;;;;;246.80;76.07;;;;;;;;;;5524631;25;20849;-43
2024/04/08 00:51:45;;;;;;;245.60;72.57;;;;;;;;;;5524421;25;20545;-43
2024/04/08 00:54:11;;;;;;;244.60;71.80;;;;;;;;;;5524388;25;20448;-43
2024/04/08 00:56:38;;;;;;;248.93;76.23;;;;;;;;;;5524012;25;20794;-43
2024/04/08 00:59:06;;;;;;;245.80;71.57;;;;;;;;;;5524002;26;20454;-43
2024/04/08 01:01:32;;;;;;;247.33;75.40;;;;;;;;;;5523390;26;20454;-43
2024/04/08 01:03:58;;;;;;;244.23;70.03;;;;;;;;;;5523644;25;20535;-43
2024/04/08 01:06:24;;;;;;;245.67;73.80;;;;;;;;;;5523379;26;20490;-43
2024/04/08 01:08:51;;;;;;;245.70;74.07;;;;;;;;;;5503985;26;21155;-43
2024/04/08 01:11:17;;;;;;;244.97;71.87;;;;;;;;;;5501610;26;20434;-43
2024/04/08 01:13:43;;;;;;;245.40;72.70;;;;;;;;;;5514687;26;20454;-43
2024/04/08 01:16:09;;;;;;;244.43;75.03;;;;;;;;;;5520031;25;20446;-43
2024/04/08 01:18:35;;;;;;;247.07;79.20;;;;;;;;;;5517548;26;21216;-43
2024/04/08 01:21:01;;;;;;;243.50;72.82;;;;;;;;;;5521827;26;21110;-42
2024/04/08 01:23:28;;;;;;;244.73;73.07;;;;;;;;;;5515026;26;20484;-42
2024/04/08 01:25:54;;;;;;;243.25;72.82;;;;;;;;;;5504289;26;20799;-42
2024/04/08 01:28:21;;;;;;;242.67;71.60;;;;;;;;;;5510557;26;20248;-42
2024/04/08 01:30:49;;;;;;;245.33;74.20;;;;;;;;;;5519932;25;20532;-43
2024/04/08 01:33:16;;;;;;;242.50;69.97;;;;;;;;;;5510827;26;20497;-42
2024/04/08 01:35:41;;;;;;;244.40;72.80;;;;;;;;;;5513817;26;20439;-43
2024/04/08 01:38:07;;;;;;;245.00;74.57;;;;;;;;;;5518324;25;20506;-43
2024/04/08 01:40:34;;;;;;;241.70;70.33;;;;;;;;;;5516734;26;20489;-43
2024/04/08 01:43:00;;;;;;;244.67;73.17;;;;;;;;;;5523207;26;21055;-43
2024/04/08 01:45:26;;;;;;;242.33;71.40;;;;;;;;;;5519972;25;20551;-43
2024/04/08 01:47:52;;;;;;;242.07;68.70;;;;;;;;;;5510262;26;20442;-43
2024/04/08 01:50:18;;;;;;;247.17;75.37;;;;;;;;;;5514343;25;20496;-43
2024/04/08 01:52:44;;;;;;;244.03;72.10;;;;;;;;;;5511171;25;20514;-43
2024/04/08 01:55:10;;;;;;;251.97;78.30;;;;;;;;;;5522817;25;20772;-42
2024/04/08 01:57:35;;;;;;;245.57;75.47;;;;;;;;;;5520089;25;20449;-43
2024/04/08 02:00:01;;;;;;;242.87;69.17;;;;;;;;;;5518428;26;20450;-42
2024/04/08 02:02:27;;;;;;;247.27;76.47;;;;;;;;;;5506384;25;20595;-43
2024/04/08 02:04:53;;;;;;;245.53;74.57;;;;;;;;;;5510737;26;20795;-42
2024/04/08 02:07:19;;;;;;;245.67;73.47;;;;;;;;;;5510417;26;20559;-43
2024/04/08 02:09:45;;;;;;;243.77;70.57;;;;;;;;;;5520022;25;20473;-42
2024/04/08 02:12:11;;;;;;;244.37;71.17;;;;;;;;;;5506776;25;20945;-42
2024/04/08 02:14:37;;;;;;;244.50;71.97;;;;;;;;;;5516817;26;20433;-42
2024/04/08 02:17:03;;;;;;;242.93;70.43;;;;;;;;;;5521725;25;21056;-43
2024/04/08 02:19:29;;;;;;;245.47;74.57;;;;;;;;;;5514969;25;20506;-43
2024/04/08 02:21:55;;;;;;;244.63;72.93;;;;;;;;;;5498452;26;20453;-43
2024/04/08 02:24:22;;;;;;;244.60;71.27;;;;;;;;;;5520515;25;20561;-43
2024/04/08 02:26:47;;;;;;;245.70;72.97;;;;;;;;;;5519176;25;20747;-43
2024/04/08 02:29:14;;;;;;;244.90;73.93;;;;;;;;;;5516715;26;20794;-43
2024/04/08 02:31:39;;;;;;;245.77;72.93;;;;;;;;;;5513307;26;20531;-43
2024/04/08 02:34:05;;;;;;;246.57;73.10;;;;;;;;;;5518182;25;20449;-42
2024/04/08 02:36:31;;;;;;;246.80;73.03;;;;;;;;;;5514451;25;20509;-42
2024/04/08 02:38:57;;;;;;;246.90;72.27;;;;;;;;;;5520143;26;20445;-42
2024/04/08 02:41:23;;;;;;;244.13;70.67;;;;;;;;;;5519677;25;20446;-43
2024/04/08 02:43:49;;;;;;;246.73;74.27;;;;;;;;;;5516534;25;20449;-42
2024/04/08 02:46:15;;;;;;;242.97;70.47;;;;;;;;;;5513442;26;20450;-43
2024/04/08 02:48:42;;;;;;;242.20;69.27;;;;;;;;;;5510345;25;20578;-42
2024/04/08 02:51:08;;;;;;;244.30;70.00;;;;;;;;;;5519873;25;20486;-43
2024/04/08 02:53:34;;;;;;;246.33;73.57;;;;;;;;;;5520206;26;20453;-42
2024/04/08 02:56:05;;;;;;;247.20;73.57;;;;;;;;;;5521197;25;20501;-42
2024/04/08 02:58:31;;;;;;;241.02;69.18;;;;;;;;;;5516403;25;20506;-43
2024/04/08 03:00:57;;;;;;;243.53;69.13;;;;;;;;;;5513117;25;20297;-42
2024/04/08 03:03:23;;;;;;;240.17;67.50;;;;;;;;;;5508786;26;20533;-43
2024/04/08 03:05:49;;;;;;;243.93;69.30;;;;;;;;;;5519310;26;20453;-43
2024/04/08 03:08:15;;;;;;;243.00;68.80;;;;;;;;;;5521975;25;20466;-43
2024/04/08 03:10:41;;;;;;;241.23;67.93;;;;;;;;;;5521469;26;20457;-42
2024/04/08 03:13:07;;;;;;;242.87;68.20;;;;;;;;;;5521371;25;20530;-43
2024/04/08 03:15:33;;;;;;;243.73;69.90;;;;;;;;;;5521065;26;20453;-43
2024/04/08 03:17:59;;;;;;;242.13;70.23;;;;;;;;;;5523687;26;20564;-43
2024/04/08 03:20:25;;;;;;;246.27;73.20;;;;;;;;;;5525457;25;20534;-43
2024/04/08 03:22:50;;;;;;;245.33;70.87;;;;;;;;;;5525224;25;21000;-42
2024/04/08 03:25:16;;;;;;;246.17;72.97;;;;;;;;;;5525362;25;20457;-43
2024/04/08 03:27:45;;;;;;;244.20;71.80;;;;;;;;;;5525558;26;20455;-43
2024/04/08 03:30:11;;;;;;;245.77;73.77;;;;;;;;;;5525814;26;20439;-43
2024/04/08 03:32:37;;;;;;;245.53;70.87;;;;;;;;;;5525613;26;20501;-43
2024/04/08 03:35:03;;;;;;;246.67;72.07;;;;;;;;;;5525315;26;20443;-42
2024/04/08 03:37:30;;;;;;;243.60;69.90;;;;;;;;;;5525360;25;20891;-42
2024/04/08 03:39:56;;;;;;;249.13;74.43;;;;;;;;;;5525239;25;20460;-43
2024/04/08 03:42:22;;;;;;;247.13;72.20;;;;;;;;;;5525299;26;20460;-42
2024/04/08 03:44:48;;;;;;;242.07;69.07;;;;;;;;;;5525242;26;20846;-42
2024/04/08 03:47:14;;;;;;;244.43;69.50;;;;;;;;;;5524920;26;20449;-43
2024/04/08 03:49:40;;;;;;;243.77;70.07;;;;;;;;;;5525223;26;20453;-43
2024/04/08 03:52:06;;;;;;;245.33;72.90;;;;;;;;;;5525318;25;20501;-42
2024/04/08 03:54:32;;;;;;;246.17;73.30;;;;;;;;;;5525445;26;20893;-43
2024/04/08 03:56:58;;;;;;;250.30;77.20;;;;;;;;;;5524489;25;20997;-43
2024/04/08 03:59:24;;;;;;;244.03;69.80;;;;;;;;;;5525283;25;20566;-43
2024/04/08 04:01:50;;;;;;;245.03;70.17;;;;;;;;;;5525258;26;20472;-42
2024/04/08 04:04:16;;;;;;;245.00;70.97;;;;;;;;;;5525029;26;20558;-43
2024/04/08 04:06:42;;;;;;;245.87;69.63;;;;;;;;;;5524613;25;20854;-42
2024/04/08 04:09:10;;;;;;;244.37;70.63;;;;;;;;;;5524848;25;20804;-42
2024/04/08 04:11:36;;;;;;;244.90;71.37;;;;;;;;;;5525065;25;20819;-43
2024/04/08 04:14:02;;;;;;;241.83;68.83;;;;;;;;;;5525189;25;20445;-43
2024/04/08 04:16:28;;;;;;;240.68;68.35;;;;;;;;;;5524674;25;20586;-42
2024/04/08 04:18:54;;;;;;;239.50;65.83;;;;;;;;;;5524725;26;20237;-42
2024/04/08 04:21:20;;;;;;;248.00;77.57;;;;;;;;;;5524780;25;20453;-43
2024/04/08 04:23:46;;;;;;;241.63;67.57;;;;;;;;;;5524751;26;20518;-43
2024/04/08 04:26:12;;;;;;;246.97;73.20;;;;;;;;;;5524412;26;20450;-43
2024/04/08 04:28:38;;;;;;;241.53;68.40;;;;;;;;;;5524294;26;21051;-43
2024/04/08 04:31:04;;;;;;;244.87;72.53;;;;;;;;;;5495464;26;20993;-43
2024/04/08 04:33:30;;;;;;;242.45;69.95;;;;;;;;;;5524398;26;20446;-43
2024/04/08 04:35:57;;;;;;;244.80;71.30;;;;;;;;;;5524587;25;20298;-42
2024/04/08 04:38:23;;;;;;;244.00;72.03;;;;;;;;;;5524406;25;20567;-43
2024/04/08 04:41:02;;;;;;;246.43;75.20;;;;;;;;;;5493953;26;20459;-43
2024/04/08 04:43:29;;;;;;;242.60;68.82;;;;;;;;;;5498506;25;20818;-42
2024/04/08 04:45:55;;;;;;;241.17;67.57;;;;;;;;;;5519633;25;20217;-43
2024/04/08 04:48:21;;;;;;;245.67;73.80;;;;;;;;;;5524721;26;20457;-43
2024/04/08 04:50:47;;;;;;;244.47;73.33;;;;;;;;;;5524501;25;20497;-42
2024/04/08 04:53:13;;;;;;;243.30;72.70;;;;;;;;;;5524350;26;20441;-42
2024/04/08 04:55:39;;;;;;;239.90;69.13;;;;;;;;;;5524059;26;20465;-42
2024/04/08 04:58:06;;;;;;;243.37;71.43;;;;;;;;;;5524970;26;20221;-42
2024/04/08 05:00:34;;;;;;;243.57;71.93;;;;;;;;;;5524511;25;20458;-42
2024/04/08 05:03:00;;;;;;;242.52;71.07;;;;;;;;;;5524407;26;20518;-42
2024/04/08 05:05:26;;;;;;;241.17;68.80;;;;;;;;;;5523943;26;20747;-43
2024/04/08 05:07:52;;;;;;;245.67;75.17;;;;;;;;;;5523946;25;20876;-42
2024/04/08 05:10:18;;;;;;;242.70;73.07;;;;;;;;;;5524200;26;20447;-42
2024/04/08 05:12:44;;;;;;;243.83;72.30;;;;;;;;;;5524154;25;20808;-42
2024/04/08 05:15:10;;;;;;;247.77;74.00;;;;;;;;;;5523594;26;20507;-42
2024/04/08 05:17:36;;;;;;;244.33;72.97;;;;;;;;;;5523879;26;20224;-42
2024/04/08 05:20:03;;;;;;;244.77;72.63;;;;;;;;;;5505275;26;20581;-42
2024/04/08 05:22:30;;;;;;;242.68;69.90;;;;;;;;;;5513439;26;21009;-42
2024/04/08 05:24:56;;;;;;;245.45;70.80;;;;;;;;;;5523713;25;20628;-42
2024/04/08 05:27:23;;;;;;;242.77;69.50;;;;;;;;;;5523792;26;20219;-42
2024/04/08 05:29:49;;;;;;;244.47;72.30;;;;;;;;;;5509235;25;20451;-42
2024/04/08 05:32:15;;;;;;;244.07;70.00;;;;;;;;;;5509186;26;21063;-42
2024/04/08 05:34:41;;;;;;;244.80;70.10;;;;;;;;;;5510023;26;20511;-42
2024/04/08 05:37:07;;;;;;;243.67;70.33;;;;;;;;;;5506663;26;20450;-42
2024/04/08 05:39:33;;;;;;;244.07;70.97;;;;;;;;;;5522864;26;20460;-42
2024/04/08 05:42:00;;;;;;;247.17;76.00;;;;;;;;;;5523342;25;20458;-42
2024/04/08 05:44:26;;;;;;;244.27;74.45;;;;;;;;;;5524391;26;20454;-42
2024/04/08 05:46:52;;;;;;;241.17;68.60;;;;;;;;;;5523209;26;20334;-42
2024/04/08 05:49:18;;;;;;;242.93;70.20;;;;;;;;;;5523696;25;20559;-42
2024/04/08 05:51:44;;;;;;;243.50;72.40;;;;;;;;;;5523545;25;20474;-43
2024/04/08 05:54:10;;;;;;;242.47;68.87;;;;;;;;;;5523352;25;20450;-42
2024/04/08 05:56:36;;;;;;;241.20;69.20;;;;;;;;;;5523060;25;20530;-42
2024/04/08 05:59:02;;;;;;;245.60;73.17;;;;;;;;;;5522586;25;20561;-43
2024/04/08 06:01:28;;;;;;;248.80;77.60;;;;;;;;;;5521864;25;21108;-43
2024/04/08 06:03:54;;;;;;;239.53;67.27;;;;;;;;;;5522925;25;20444;-41
2024/04/08 06:06:20;;;;;;;246.38;71.65;;;;;;;;;;5522006;25;20690;-42
2024/04/08 06:08:54;;;;;;;246.07;72.83;;;;;;;;;;5522382;26;20276;-42
2024/04/08 06:11:20;;;;;;;245.83;71.33;;;;;;;;;;5521864;25;20442;-43
2024/04/08 06:13:46;;;;;;;242.97;70.50;;;;;;;;;;5491629;25;20545;-42
2024/04/08 06:16:12;;;;;;;242.47;70.00;;;;;;;;;;5520717;25;20453;-44
2024/04/08 06:18:37;;;;;;;248.47;74.50;;;;;;;;;;5519916;25;20506;-42
2024/04/08 06:21:04;;;;;;;241.87;70.23;;;;;;;;;;5522142;26;20445;-41
2024/04/08 06:23:30;;;;;;;241.77;68.20;;;;;;;;;;5521962;26;20454;-42
2024/04/08 06:26:03;;;;;;;247.77;74.17;;;;;;;;;;5506636;25;20571;-41
2024/04/08 06:28:29;;;;;;;246.43;74.17;;;;;;;;;;5505966;26;20841;-43
2024/04/08 06:30:56;;;;;;;247.67;74.57;;;;;;;;;;5518845;26;20462;-43
2024/04/08 06:33:22;;;;;;;244.50;71.67;;;;;;;;;;5515789;26;20450;-42
2024/04/08 06:35:48;;;;;;;245.02;73.07;;;;;;;;;;5519334;25;20441;-42
2024/04/08 06:38:14;;;;;;;243.67;71.73;;;;;;;;;;5517460;26;20221;-42
2024/04/08 06:40:44;;;;;;;248.70;75.27;;;;;;;;;;5514300;25;20555;-41
2024/04/08 06:43:10;;;;;;;247.87;75.40;;;;;;;;;;5511490;25;20491;-42
2024/04/08 06:45:36;;;;;;;245.93;72.50;;;;;;;;;;5516338;25;20449;-42
2024/04/08 06:48:03;;;;;;;247.53;76.33;;;;;;;;;;5515783;25;20502;-42
2024/04/08 06:50:29;;;;;;;249.20;75.57;;;;;;;;;;5519658;26;20447;-44
2024/04/08 06:52:55;;;;;;;246.87;73.90;;;;;;;;;;5523496;25;20918;-41
2024/04/08 06:55:21;;;;;;;247.37;75.43;;;;;;;;;;5504748;25;20502;-42
2024/04/08 06:57:46;;;;;;;248.27;77.80;;;;;;;;;;5514709;26;20514;-42
2024/04/08 07:00:13;;;;;;;246.97;74.73;;;;;;;;;;5499881;26;20774;-42
2024/04/08 07:02:40;;;;;;;246.57;76.30;;;;;;;;;;5524066;26;20465;-42
2024/04/08 07:05:06;;;;;;;251.10;78.27;;;;;;;;;;5520761;25;20442;-43
2024/04/08 07:07:32;;;;;;;251.87;83.70;;;;;;;;;;5518815;26;21040;-42
2024/04/08 07:09:58;;;;;;;254.17;86.80;;;;;;;;;;5523528;25;20441;-42
2024/04/08 07:12:24;;;;;;;250.53;79.73;;;;;;;;;;5516684;26;20447;-41
2024/04/08 07:14:53;;;;;;;253.60;80.83;;;;;;;;;;5524551;25;20987;-42
2024/04/08 07:17:22;;;;;;;257.07;92.37;;;;;;;;;;5495735;26;21034;-42
2024/04/08 07:19:48;;;;;;;255.57;90.83;;;;;;;;;;5517305;26;20498;-43
2024/04/08 07:22:14;;;;;;;255.77;92.23;;;;;;;;;;5506033;26;20494;-41
2024/04/08 07:24:40;;;;;;;255.57;93.10;;;;;;;;;;5514715;26;20458;-42
2024/04/08 07:27:06;;;;;;;260.63;103.03;;;;;;;;;;5523827;25;20552;-42
2024/04/08 07:29:32;;;;;;;253.33;88.87;;;;;;;;;;5524932;26;20437;-42
2024/04/08 07:31:59;;;;;;;259.13;98.87;;;;;;;;;;5525354;26;20513;-42
2024/04/08 07:34:25;;;;;;;256.03;94.93;;;;;;;;;;5521293;26;20451;-42
2024/04/08 07:36:51;;;;;;;258.00;101.53;;;;;;;;;;5517055;25;20494;-42
2024/04/08 07:39:17;;;;;;;258.00;98.83;;;;;;;;;;5504174;25;20455;-42
2024/04/08 07:41:43;;;;;;;256.30;98.60;;;;;;;;;;5524255;25;20506;-42
2024/04/08 07:44:09;;;;;;;254.90;95.30;;;;;;;;;;5523788;25;20498;-42
2024/04/08 07:46:35;;;;;;;261.00;104.70;;;;;;;;;;5520508;26;20450;-42
2024/04/08 07:49:01;;;;;;;257.93;99.83;;;;;;;;;;5509589;26;20438;-42
2024/04/08 07:51:28;;;;;;;258.70;100.97;;;;;;;;;;5524878;25;20454;-43
2024/04/08 07:53:54;;;;;;;253.73;97.33;;;;;;;;;;5525187;25;20540;-42
2024/04/08 07:56:20;;;;;;;258.00;98.47;;;;;;;;;;5524249;26;20585;-42
2024/04/08 07:58:46;;;;;;;264.00;109.90;;;;;;;;;;5500152;26;20457;-42
2024/04/08 08:01:13;;;;;;;256.97;101.03;;;;;;;;;;5509590;26;21030;-42
2024/04/08 08:03:39;;;;;;;258.30;105.50;;;;;;;;;;5510687;25;20447;-43
2024/04/08 08:06:05;;;;;;;256.50;98.83;;;;;;;;;;5522451;25;20507;-43
2024/04/08 08:08:31;;;;;;;258.17;102.37;;;;;;;;;;5524936;25;20433;-42
2024/04/08 08:10:57;;;;;;;261.57;110.30;;;;;;;;;;5524602;25;20992;-43
2024/04/08 08:13:23;;;;;;;257.80;101.07;;;;;;;;;;5524867;25;20903;-42
2024/04/08 08:15:56;;;;;;;255.83;98.90;;;;;;;;;;5511248;26;20455;-42
2024/04/08 08:18:21;;;;;;;260.03;107.53;;;;;;;;;;5512594;26;20497;-42
2024/04/08 08:20:47;;;;;;;257.47;100.70;;;;;;;;;;5524749;25;21075;-42
2024/04/08 08:23:15;;;;;;;256.00;103.67;;;;;;;;;;5524874;25;20446;-42
2024/04/08 08:25:41;;;;;;;263.83;106.10;;;;;;;;;;5518136;25;20993;-42
2024/04/08 08:28:06;;;;;;;260.37;105.53;;;;;;;;;;5499231;26;21887;-42
2024/04/08 08:30:39;;;;;;;255.40;101.97;;;;;;;;;;5492304;26;20520;-43
2024/04/08 08:33:05;;;;;;;263.67;112.37;;;;;;;;;;5519361;26;20555;-43
2024/04/08 08:35:31;;;;;;;258.67;107.87;;;;;;;;;;5514584;25;20892;-43
2024/04/08 08:37:57;;;;;;;264.93;111.63;;;;;;;;;;5513951;26;20455;-43
2024/04/08 08:40:23;;;;;;;257.83;107.20;;;;;;;;;;5510141;25;20487;-43
2024/04/08 08:42:51;;;;;;;258.07;109.00;;;;;;;;;;5524325;25;20442;-43
2024/04/08 08:45:17;;;;;;;264.50;121.17;;;;;;;;;;5524060;26;20507;-43
2024/04/08 08:47:43;;;;;;;261.00;114.40;;;;;;;;;;5523842;25;21142;-43
2024/04/08 08:50:10;;;;;;;263.40;122.40;;;;;;;;;;5524059;26;20502;-42
2024/04/08 08:52:36;;;;;;;260.17;114.00;;;;;;;;;;5524241;25;20446;-44
2024/04/08 08:55:03;;;;;;;263.03;120.27;;;;;;;;;;5511723;25;20934;-43
2024/04/08 08:57:30;;;;;;;258.30;114.40;;;;;;;;;;5513651;25;21101;-43
2024/04/08 08:59:56;;;;;;;260.60;119.00;;;;;;;;;;5524864;25;20446;-43
2024/04/08 09:02:22;;;;;;;260.70;121.30;;;;;;;;;;5524688;25;20447;-42
2024/04/08 09:04:48;;;;;;;263.97;125.97;;;;;;;;;;5479394;26;20503;-43
2024/04/08 09:07:14;;;;;;;262.37;126.40;;;;;;;;;;5488251;25;20442;-44
2024/04/08 09:09:40;;;;;;;260.07;121.37;;;;;;;;;;5495990;26;20555;-43
2024/04/08 09:12:09;;;;;;;259.83;120.87;;;;;;;;;;5498760;26;20542;-42
2024/04/08 09:14:35;;;;;;;258.60;115.57;;;;;;;;;;5510203;26;20786;-43
2024/04/08 09:17:08;;;;;;;257.50;115.13;;;;;;;;;;5505416;25;20506;-43
2024/04/08 09:19:35;;;;;;;259.13;119.53;;;;;;;;;;5524185;25;20536;-42
2024/04/08 09:22:01;;;;;;;260.43;122.47;;;;;;;;;;5524236;25;20543;-43
2024/04/08 09:24:27;;;;;;;260.37;122.43;;;;;;;;;;5511809;26;20454;-43
2024/04/08 09:26:53;;;;;;;257.23;115.93;;;;;;;;;;5518344;26;20442;-43
2024/04/08 09:29:19;;;;;;;258.20;124.43;;;;;;;;;;5517364;26;20978;-43
2024/04/08 09:31:46;;;;;;;260.03;127.03;;;;;;;;;;5501675;26;20514;-43
2024/04/08 09:34:12;;;;;;;258.80;120.70;;;;;;;;;;5484885;26;20450;-43
2024/04/08 09:36:40;;;;;;;257.93;118.80;;;;;;;;;;5493638;25;20444;-42
2024/04/08 09:39:08;;;;;;;257.83;115.43;;;;;;;;;;5516870;26;20504;-43
2024/04/08 09:41:36;;;;;;;256.77;112.13;;;;;;;;;;5523708;25;20498;-43
2024/04/08 09:44:09;;;;;;;257.13;111.60;;;;;;;;;;5505693;25;20503;-43
2024/04/08 09:46:36;;;;;;;259.43;114.37;;;;;;;;;;5487452;26;20503;-43
2024/04/08 09:49:03;;;;;;;257.07;110.70;;;;;;;;;;5489634;26;20565;-43
2024/04/08 09:51:30;;;;;;;257.37;111.70;;;;;;;;;;5507722;25;20505;-43
2024/04/08 09:53:56;;;;;;;255.60;108.77;;;;;;;;;;5512048;25;20447;-43
2024/04/08 09:56:22;;;;;;;258.53;115.43;;;;;;;;;;5516798;26;20442;-43
2024/04/08 09:58:57;;;;;;;260.37;120.03;;;;;;;;;;5494276;26;20449;-43
2024/04/08 10:01:23;;;;;;;258.63;115.23;;;;;;;;;;5498484;26;20501;-43
2024/04/08 10:03:51;;;;;;;261.13;120.77;;;;;;;;;;5492989;26;21077;-43
2024/04/08 10:06:18;;;;;;;260.73;122.60;;;;;;;;;;5517591;26;20454;-43
2024/04/08 10:08:47;;;;;;;262.93;129.17;;;;;;;;;;5506283;26;20487;-43
2024/04/08 10:11:13;;;;;;;258.07;122.40;;;;;;;;;;5483816;26;20498;-43
2024/04/08 10:13:48;;;;;;;260.17;123.83;;;;;;;;;;5511037;26;20788;-43
2024/04/08 10:16:14;;;;;;;258.33;117.73;;;;;;;;;;5493680;25;20437;-43
2024/04/08 10:18:54;;;;;;;258.33;120.33;;;;;;;;;;5523135;26;20502;-42
2024/04/08 10:21:20;;;;;;;255.53;116.87;;;;;;;;;;5513708;26;20498;-43
2024/04/08 10:23:46;;;;;;;260.87;127.63;;;;;;;;;;5520207;25;20504;-43
2024/04/08 10:26:13;;;;;;;259.97;127.97;;;;;;;;;;5512672;26;20936;-44
2024/04/08 10:28:42;;;;;;;261.10;130.37;;;;;;;;;;5511625;26;20529;-43
2024/04/08 10:31:09;;;;;;;263.50;132.40;;;;;;;;;;5489887;26;20507;-43
2024/04/08 10:33:35;;;;;;;260.10;130.17;;;;;;;;;;5520740;25;20441;-43
2024/04/08 10:36:01;;;;;;;261.23;127.77;;;;;;;;;;5521790;25;20801;-43
2024/04/08 10:38:28;;;;;;;261.40;123.87;;;;;;;;;;5520844;25;21097;-42
2024/04/08 10:40:57;;;;;;;260.07;122.63;;;;;;;;;;5521273;25;20465;-42
2024/04/08 10:43:23;;;;;;;260.47;123.87;;;;;;;;;;5505494;26;20515;-43
2024/04/08 10:45:51;;;;;;;260.17;126.33;;;;;;;;;;5507775;25;20446;-43
2024/04/08 10:48:17;;;;;;;259.17;127.27;;;;;;;;;;5517432;25;20802;-43
2024/04/08 10:50:47;;;;;;;260.07;129.20;;;;;;;;;;5515133;26;20450;-43
2024/04/08 10:53:13;;;;;;;261.13;130.07;;;;;;;;;;5492544;25;21164;-43
2024/04/08 10:55:39;;;;;;;260.97;130.90;;;;;;;;;;5521939;26;20490;-43
2024/04/08 10:58:04;;;;;;;257.20;122.90;;;;;;;;;;5522206;25;20435;-43
2024/04/08 11:00:31;;;;;;;258.00;121.70;;;;;;;;;;5515729;26;20839;-43
2024/04/08 11:02:58;;;;;;;258.23;124.50;;;;;;;;;;5516681;25;21003;-43
2024/04/08 11:05:24;;;;;;;259.83;126.07;;;;;;;;;;5522269;25;20984;-43
2024/04/08 11:07:50;;;;;;;256.30;121.17;;;;;;;;;;5508559;25;20449;-43
2024/04/08 11:10:19;;;;;;;258.47;125.70;;;;;;;;;;5522453;25;20516;-43
2024/04/08 11:12:46;;;;;;;258.03;124.30;;;;;;;;;;5521914;26;20489;-44
2024/04/08 11:15:13;;;;;;;260.17;127.77;;;;;;;;;;5521623;26;20567;-43
2024/04/08 11:17:40;;;;;;;258.50;123.70;;;;;;;;;;5521781;25;21120;-43
2024/04/08 11:20:06;;;;;;;256.77;120.00;;;;;;;;;;5521805;25;20509;-43
2024/04/08 11:22:35;;;;;;;258.00;120.97;;;;;;;;;;5521351;26;20462;-43
2024/04/08 11:25:02;;;;;;;258.60;122.37;;;;;;;;;;5518667;25;20434;-43
2024/04/08 11:27:29;;;;;;;259.00;120.27;;;;;;;;;;5521825;26;20815;-42
2024/04/08 11:29:55;;;;;;;259.13;116.47;;;;;;;;;;5506113;26;20739;-43
2024/04/08 11:32:21;;;;;;;264.37;125.60;;;;;;;;;;5508241;26;20569;-43
2024/04/08 11:34:47;;;;;;;263.30;124.27;;;;;;;;;;5521368;26;20518;-43
2024/04/08 11:37:13;;;;;;;260.80;121.73;;;;;;;;;;5504899;26;20436;-43
2024/04/08 11:39:40;;;;;;;262.63;121.83;;;;;;;;;;5513112;26;20498;-42
2024/04/08 11:42:07;;;;;;;260.70;119.40;;;;;;;;;;5525094;25;20510;-43
2024/04/08 11:44:33;;;;;;;262.57;122.83;;;;;;;;;;5509798;25;21102;-44
2024/04/08 11:47:00;;;;;;;263.93;123.77;;;;;;;;;;5524580;25;21188;-44
2024/04/08 11:49:26;;;;;;;260.50;116.30;;;;;;;;;;5522544;25;20469;-44
2024/04/08 11:51:52;;;;;;;261.83;116.93;;;;;;;;;;5521866;25;20518;-44
2024/04/08 11:54:18;;;;;;;261.93;124.07;;;;;;;;;;5523651;26;20916;-44
2024/04/08 11:56:44;;;;;;;262.27;116.73;;;;;;;;;;5524758;26;20989;-44
2024/04/08 11:59:11;;;;;;;257.43;112.77;;;;;;;;;;5522191;25;20502;-44
2024/04/08 12:01:37;;;;;;;260.57;115.90;;;;;;;;;;5524220;25;20461;-44
2024/04/08 12:04:03;;;;;;;264.57;125.43;;;;;;;;;;5522659;25;20453;-44
2024/04/08 12:06:29;;;;;;;260.67;122.90;;;;;;;;;;5522845;25;20557;-44
2024/04/08 12:08:56;;;;;;;262.70;125.83;;;;;;;;;;5524727;25;20560;-44
2024/04/08 12:11:22;;;;;;;259.70;123.50;;;;;;;;;;5524492;26;20439;-44
2024/04/08 12:13:49;;;;;;;265.07;134.77;;;;;;;;;;5524844;25;20564;-44
2024/04/08 12:16:15;;;;;;;260.20;129.53;;;;;;;;;;5524543;26;20798;-44
2024/04/08 12:18:41;;;;;;;261.13;135.57;;;;;;;;;;5524750;25;20453;-44
2024/04/08 12:21:07;;;;;;;260.50;136.70;;;;;;;;;;5523014;26;20553;-44
2024/04/08 12:23:33;;;;;;;259.57;130.83;;;;;;;;;;5524870;25;20458;-44
2024/04/08 12:25:59;;;;;;;263.33;136.07;;;;;;;;;;5524603;25;20506;-44
2024/04/08 12:28:25;;;;;;;260.33;132.53;;;;;;;;;;5524841;26;20438;-44
2024/04/08 12:30:53;;;;;;;259.47;129.70;;;;;;;;;;5495692;26;21149;-44
2024/04/08 12:33:19;;;;;;;263.23;139.03;;;;;;;;;;5525066;26;21084;-44
2024/04/08 12:35:45;;;;;;;261.43;138.60;;;;;;;;;;5524276;25;20495;-44
2024/04/08 12:38:13;;;;;;;262.47;140.97;;;;;;;;;;5524801;25;20566;-45
2024/04/08 12:40:39;;;;;;;280.87;157.43;;;;;;;;;;5522246;25;20442;-45
2024/04/08 12:43:05;;;;;;;265.90;151.03;;;;;;;;;;5524366;25;20457;-44
2024/04/08 12:45:31;;;;;;;267.87;162.53;;;;;;;;;;5524280;26;20515;-45
2024/04/08 12:47:57;;;;;;;265.57;154.27;;;;;;;;;;5524274;26;20458;-45
2024/04/08 12:50:23;;;;;;;265.53;152.83;;;;;;;;;;5524004;25;20495;-44
2024/04/08 12:52:49;;;;;;;263.67;151.20;;;;;;;;;;5524504;26;21004;-44
2024/04/08 12:55:15;;;;;;;267.33;150.33;;;;;;;;;;5524016;25;20572;-44
2024/04/08 12:57:41;;;;;;;264.73;143.63;;;;;;;;;;5523893;25;20442;-44
2024/04/08 13:00:10;;;;;;;267.17;145.17;;;;;;;;;;5524472;25;20956;-44
2024/04/08 13:02:39;;;;;;;265.43;140.67;;;;;;;;;;5524196;26;20443;-44
2024/04/08 13:05:05;;;;;;;264.67;136.60;;;;;;;;;;5523816;25;20446;-44
2024/04/08 13:07:31;;;;;;;263.33;133.07;;;;;;;;;;5524397;26;20498;-44
2024/04/08 13:09:57;;;;;;;267.07;134.87;;;;;;;;;;5523979;25;20450;-44
2024/04/08 13:12:25;;;;;;;263.00;125.60;;;;;;;;;;5523973;25;21084;-44
2024/04/08 13:14:51;;;;;;;266.63;130.80;;;;;;;;;;5524153;26;20851;-44
2024/04/08 13:17:17;;;;;;;264.57;126.20;;;;;;;;;;5523626;26;20495;-44
2024/04/08 13:19:43;;;;;;;261.60;121.23;;;;;;;;;;5524189;25;20442;-44
2024/04/08 13:22:09;;;;;;;262.47;123.07;;;;;;;;;;5524067;26;20509;-44
2024/04/08 13:24:35;;;;;;;263.03;125.53;;;;;;;;;;5523932;25;20446;-44
2024/04/08 13:27:01;;;;;;;261.23;119.73;;;;;;;;;;5523311;25;20557;-44
2024/04/08 13:29:27;;;;;;;260.07;118.77;;;;;;;;;;5514923;26;20458;-44
2024/04/08 13:31:53;;;;;;;261.77;118.77;;;;;;;;;;5503425;26;21075;-44
2024/04/08 13:34:19;;;;;;;256.93;110.33;;;;;;;;;;5525075;25;20446;-44
2024/04/08 13:36:45;;;;;;;260.40;115.83;;;;;;;;;;5523182;25;20462;-44
2024/04/08 13:39:11;;;;;;;259.67;114.23;;;;;;;;;;5523708;25;20449;-44
2024/04/08 13:41:37;;;;;;;262.63;118.37;;;;;;;;;;5523435;25;20504;-43
2024/04/08 13:44:03;;;;;;;262.50;121.73;;;;;;;;;;5523727;26;20461;-44
2024/04/08 13:46:29;;;;;;;261.40;117.20;;;;;;;;;;5523222;25;20610;-44
2024/04/08 13:48:55;;;;;;;260.33;116.30;;;;;;;;;;5523480;25;21008;-44
2024/04/08 13:51:21;;;;;;;260.50;118.37;;;;;;;;;;5523512;26;20531;-44
2024/04/08 13:53:46;;;;;;;259.33;114.73;;;;;;;;;;5524017;25;20531;-44